createdAt,value
2018-12-05T00:00:42.330Z,2.40
2018-12-05T00:03:21.814Z,2.30
2018-12-05T00:05:57.327Z,2.20
2018-12-05T00:08:39.697Z,2.10
2018-12-05T00:11:15.474Z,2.00
2018-12-05T00:13:50.818Z,2.00
2018-12-05T00:16:26.148Z,1.90
2018-12-05T00:19:02.032Z,1.90
2018-12-05T00:21:36.911Z,1.80
2018-12-05T00:24:18.376Z,1.80
2018-12-05T00:30:00.915Z,1.70
2018-12-05T00:32:43.617Z,1.70
2018-12-05T00:35:27.994Z,1.60
2018-12-05T00:41:09.316Z,1.50
2018-12-05T00:43:46.834Z,1.40
2018-12-05T00:46:21.847Z,1.30
2018-12-05T00:51:59.829Z,1.30
2018-12-05T00:54:42.280Z,1.20
2018-12-05T00:57:26.727Z,1.20
2018-12-05T01:03:04.469Z,1.40
2018-12-05T01:05:47.774Z,1.30
2018-12-05T01:08:28.630Z,1.30
2018-12-05T01:11:11.367Z,1.30
2018-12-05T01:13:47.303Z,1.30
2018-12-05T01:16:22.331Z,1.20
2018-12-05T01:18:57.664Z,1.20
2018-12-05T01:21:32.632Z,1.20
2018-12-05T01:24:09.067Z,1.20
2018-12-05T01:26:48.592Z,1.20
2018-12-05T01:29:25.657Z,1.10
2018-12-05T01:32:14.386Z,1.10
2018-12-05T01:34:56.300Z,1.10
2018-12-05T01:43:48.747Z,0.90
2018-12-05T01:46:28.591Z,0.90
2018-12-05T01:49:05.267Z,0.90
2018-12-05T01:54:37.498Z,0.80
2018-12-05T01:57:23.138Z,0.80
2018-12-05T02:00:04.528Z,0.70
2018-12-05T02:02:47.256Z,0.70
2018-12-05T02:05:28.324Z,0.60
2018-12-05T02:08:04.984Z,0.60
2018-12-05T02:10:47.764Z,0.60
2018-12-05T02:13:29.731Z,0.60
2018-12-05T02:16:10.602Z,0.60
2018-12-05T02:18:47.499Z,0.60
2018-12-05T02:21:25.665Z,0.70
2018-12-05T02:24:07.104Z,0.70
2018-12-05T02:26:52.839Z,0.70
2018-12-05T02:29:51.413Z,0.60
2018-12-05T02:32:27.144Z,0.60
2018-12-05T02:35:07.542Z,0.60
2018-12-05T02:37:56.052Z,0.50
2018-12-05T02:40:32.208Z,0.40
2018-12-05T02:43:12.397Z,0.30
2018-12-05T02:45:47.961Z,0.30
2018-12-05T02:48:34.242Z,0.30
2018-12-05T02:51:16.322Z,0.40
2018-12-05T03:00:02.936Z,0.40
2018-12-05T03:02:44.285Z,0.40
2018-12-05T03:05:37.828Z,0.30
2018-12-05T03:23:20.374Z,0.20
2018-12-05T03:29:13.070Z,0.10
2018-12-05T03:37:51.671Z,0.10
2018-12-05T03:43:25.000Z,0.30
2018-12-05T03:46:15.373Z,0.30
2018-12-05T03:49:05.269Z,0.30
2018-12-05T03:54:54.693Z,0.20
2018-12-05T04:13:34.247Z,-0.10
2018-12-05T04:16:15.114Z,-0.10
2018-12-05T04:19:04.409Z,0.00
2018-12-05T04:21:48.421Z,-0.10
2018-12-05T04:24:30.339Z,0.00
2018-12-05T04:27:17.202Z,-0.10
2018-12-05T04:30:03.243Z,-0.10
2018-12-05T04:32:44.316Z,-0.10
2018-12-05T04:35:25.717Z,-0.20
2018-12-05T04:40:51.723Z,-0.20
2018-12-05T04:46:29.152Z,-0.10
2018-12-05T04:49:18.698Z,-0.10
2018-12-05T04:52:14.883Z,-0.10
2018-12-05T04:55:16.061Z,-0.10
2018-12-05T05:04:10.730Z,-0.10
2018-12-05T05:06:59.711Z,-0.10
2018-12-05T05:09:51.322Z,-0.10
2018-12-05T05:12:33.196Z,-0.10
2018-12-05T05:15:13.798Z,0.00
2018-12-05T05:17:52.383Z,0.00
2018-12-05T05:20:39.459Z,0.00
2018-12-05T05:23:20.126Z,0.00
2018-12-05T05:25:58.581Z,0.00
2018-12-05T05:28:39.694Z,0.10
2018-12-05T05:34:31.007Z,0.00
2018-12-05T05:40:13.075Z,0.10
2018-12-05T05:42:57.428Z,0.20
2018-12-05T05:45:36.673Z,0.30
2018-12-05T05:51:16.643Z,0.30
2018-12-05T05:53:57.796Z,0.40
2018-12-05T05:56:40.705Z,0.40
2018-12-05T06:02:35.764Z,0.30
2018-12-05T06:05:27.553Z,0.40
2018-12-05T06:08:22.581Z,0.40
2018-12-05T06:10:57.543Z,0.40
2018-12-05T06:13:32.360Z,0.30
2018-12-05T06:16:06.823Z,0.30
2018-12-05T06:18:46.114Z,0.30
2018-12-05T06:21:21.851Z,0.30
2018-12-05T06:23:57.969Z,0.30
2018-12-05T06:26:34.506Z,0.30
2018-12-05T06:29:09.425Z,0.30
2018-12-05T06:31:46.631Z,0.40
2018-12-05T06:37:02.875Z,0.40
2018-12-05T06:39:38.435Z,0.30
2018-12-05T06:42:12.738Z,0.30
2018-12-05T06:44:50.028Z,0.30
2018-12-05T06:47:24.807Z,0.30
2018-12-05T06:49:59.031Z,0.40
2018-12-05T06:52:34.176Z,0.40
2018-12-05T06:55:09.167Z,0.40
2018-12-05T06:57:43.618Z,0.40
2018-12-05T07:00:19.179Z,0.40
2018-12-05T07:02:57.794Z,0.50
2018-12-05T07:05:32.905Z,0.40
2018-12-05T07:08:07.538Z,0.40
2018-12-05T07:10:43.272Z,0.40
2018-12-05T07:13:18.184Z,0.50
2018-12-05T07:15:52.856Z,0.50
2018-12-05T07:18:30.885Z,0.50
2018-12-05T07:21:05.735Z,0.50
2018-12-05T07:23:40.892Z,0.40
2018-12-05T07:26:16.152Z,0.50
2018-12-05T07:28:52.806Z,0.50
2018-12-05T07:31:27.286Z,0.50
2018-12-05T07:34:02.129Z,0.60
2018-12-05T07:36:36.938Z,0.60
2018-12-05T07:39:13.559Z,0.60
2018-12-05T07:41:49.567Z,0.60
2018-12-05T07:44:27.882Z,0.60
2018-12-05T07:47:02.777Z,0.70
2018-12-05T07:49:39.082Z,0.70
2018-12-05T07:52:16.660Z,0.80
2018-12-05T07:54:53.614Z,0.80
2018-12-05T07:57:28.889Z,0.80
2018-12-05T08:00:06.823Z,0.90
2018-12-05T08:02:41.146Z,1.00
2018-12-05T08:05:17.415Z,1.10
2018-12-05T08:07:52.666Z,1.10
2018-12-05T08:10:28.071Z,1.20
2018-12-05T08:13:03.660Z,1.30
2018-12-05T08:15:39.787Z,1.40
2018-12-05T08:18:14.928Z,1.40
2018-12-05T08:20:54.262Z,1.40
2018-12-05T08:23:28.810Z,1.50
2018-12-05T08:28:45.544Z,1.50
2018-12-05T08:31:20.935Z,1.60
2018-12-05T08:33:55.291Z,1.60
2018-12-05T08:36:29.683Z,1.60
2018-12-05T08:39:11.157Z,1.60
2018-12-05T08:41:46.913Z,1.70
2018-12-05T08:44:23.888Z,1.70
2018-12-05T08:46:59.931Z,1.80
2018-12-05T08:49:37.117Z,1.80
2018-12-05T08:52:12.532Z,1.80
2018-12-05T08:54:49.031Z,1.80
2018-12-05T08:57:24.806Z,1.80
2018-12-05T09:00:00.140Z,1.80
2018-12-05T09:02:35.262Z,1.80
2018-12-05T09:05:11.984Z,1.90
2018-12-05T09:07:52.241Z,1.90
2018-12-05T09:10:28.868Z,1.90
2018-12-05T09:13:05.897Z,1.90
2018-12-05T09:15:41.285Z,2.00
2018-12-05T09:18:16.140Z,2.10
2018-12-05T09:20:52.210Z,2.10
2018-12-05T09:23:33.132Z,2.10
2018-12-05T09:26:11.278Z,2.20
2018-12-05T09:28:57.020Z,2.20
2018-12-05T09:31:30.486Z,2.30
2018-12-05T09:34:10.232Z,2.30
2018-12-05T09:36:48.581Z,2.40
2018-12-05T09:39:25.410Z,2.50
2018-12-05T09:42:04.638Z,2.50
2018-12-05T09:44:44.289Z,2.60
2018-12-05T09:47:30.673Z,2.70
2018-12-05T09:50:11.659Z,2.90
2018-12-05T09:52:53.829Z,2.90
2018-12-05T09:55:33.001Z,3.00
2018-12-05T09:58:10.371Z,3.10
2018-12-05T10:00:45.513Z,3.10
2018-12-05T10:03:28.505Z,3.20
2018-12-05T10:06:05.990Z,3.20
2018-12-05T10:08:53.865Z,3.40
2018-12-05T10:11:34.257Z,3.40
2018-12-05T10:14:12.478Z,3.50
2018-12-05T10:16:51.915Z,3.50
2018-12-05T10:22:34.011Z,3.70
2018-12-05T10:25:21.269Z,3.70
2018-12-05T10:27:59.796Z,3.70
2018-12-05T10:30:50.658Z,3.70
2018-12-05T10:33:45.260Z,3.70
2018-12-05T10:36:22.789Z,3.80
2018-12-05T10:38:59.191Z,4.00
2018-12-05T10:41:37.603Z,4.10
2018-12-05T10:44:19.194Z,4.10
2018-12-05T10:46:57.124Z,4.30
2018-12-05T10:49:33.690Z,4.40
2018-12-05T10:52:09.718Z,4.50
2018-12-05T10:54:49.042Z,4.60
2018-12-05T10:57:26.295Z,4.60
2018-12-05T11:00:03.699Z,4.70
2018-12-05T11:02:43.803Z,4.70
2018-12-05T11:05:27.858Z,4.70
2018-12-05T11:08:09.145Z,4.80
2018-12-05T11:10:50.800Z,4.80
2018-12-05T11:13:38.964Z,4.90
2018-12-05T11:16:19.367Z,4.90
2018-12-05T11:19:03.209Z,5.00
2018-12-05T11:21:49.704Z,5.00
2018-12-05T11:24:26.399Z,5.00
2018-12-05T11:27:01.035Z,5.10
2018-12-05T11:29:35.388Z,5.20
2018-12-05T11:32:11.332Z,5.20
2018-12-05T11:34:46.883Z,5.30
2018-12-05T11:37:21.283Z,5.40
2018-12-05T11:39:57.263Z,5.40
2018-12-05T11:42:34.070Z,5.40
2018-12-05T11:45:09.121Z,5.50
2018-12-05T11:47:49.143Z,5.60
2018-12-05T11:50:27.277Z,5.60
2018-12-05T11:53:04.726Z,5.70
2018-12-05T11:55:40.356Z,5.80
2018-12-05T11:58:17.408Z,5.80
2018-12-05T12:01:00.794Z,5.90
2018-12-05T12:03:37.755Z,5.90
2018-12-05T12:06:31.295Z,5.90
2018-12-05T12:09:09.749Z,5.90
2018-12-05T12:11:51.638Z,6.00
2018-12-05T12:14:26.425Z,6.00
2018-12-05T12:17:03.382Z,6.10
2018-12-05T12:19:38.431Z,6.10
2018-12-05T12:22:13.473Z,6.20
2018-12-05T12:24:47.846Z,6.20
2018-12-05T12:27:22.446Z,6.20
2018-12-05T12:29:56.821Z,6.20
2018-12-05T12:32:31.152Z,6.20
2018-12-05T12:35:05.689Z,6.30
2018-12-05T12:37:39.983Z,6.30
2018-12-05T12:40:15.103Z,6.30
2018-12-05T12:42:49.810Z,6.40
2018-12-05T12:45:25.465Z,6.40
2018-12-05T12:48:00.842Z,6.50
2018-12-05T12:50:37.379Z,6.60
2018-12-05T12:53:11.805Z,6.60
2018-12-05T12:55:46.062Z,6.70
2018-12-05T12:58:20.467Z,6.90
2018-12-05T13:00:54.963Z,6.90
2018-12-05T13:03:31.493Z,7.00
2018-12-05T13:06:06.827Z,7.00
2018-12-05T13:08:45.722Z,7.00
2018-12-05T13:11:21.105Z,7.00
2018-12-05T13:13:55.548Z,7.10
2018-12-05T13:16:30.398Z,6.90
2018-12-05T13:19:04.937Z,6.90
2018-12-05T13:21:40.743Z,7.00
2018-12-05T13:24:15.294Z,7.00
2018-12-05T13:29:29.551Z,7.10
2018-12-05T13:32:04.273Z,7.20
2018-12-05T13:34:38.783Z,7.20
2018-12-05T13:37:13.096Z,7.20
2018-12-05T13:39:47.482Z,7.10
2018-12-05T13:42:21.955Z,7.20
2018-12-05T13:44:56.399Z,7.20
2018-12-05T13:47:30.572Z,7.10
2018-12-05T13:50:05.802Z,7.00
2018-12-05T13:52:41.079Z,7.00
2018-12-05T13:55:15.316Z,6.90
2018-12-05T13:57:49.740Z,6.90
2018-12-05T14:00:24.157Z,6.80
2018-12-05T14:02:59.120Z,6.70
2018-12-05T14:05:34.003Z,6.70
2018-12-05T14:08:08.992Z,6.60
2018-12-05T14:10:43.415Z,6.50
2018-12-05T14:13:18.373Z,6.30
2018-12-05T14:15:54.190Z,6.20
2018-12-05T14:18:29.590Z,6.00
2018-12-05T14:21:04.056Z,5.90
2018-12-05T14:23:38.891Z,5.90
2018-12-05T14:26:14.216Z,5.70
2018-12-05T14:28:48.628Z,5.60
2018-12-05T14:31:23.215Z,5.50
2018-12-05T14:33:57.455Z,5.40
2018-12-05T14:36:32.249Z,5.30
2018-12-05T14:39:09.704Z,5.20
2018-12-05T14:41:44.345Z,5.20
2018-12-05T14:44:18.751Z,5.00
2018-12-05T14:46:53.195Z,4.90
2018-12-05T14:49:28.182Z,4.80
2018-12-05T14:52:03.522Z,4.80
2018-12-05T14:54:38.428Z,4.70
2018-12-05T14:57:12.689Z,4.60
2018-12-05T14:59:46.855Z,4.60
2018-12-05T15:02:21.275Z,4.50
2018-12-05T15:04:56.269Z,4.50
2018-12-05T15:07:31.952Z,4.50
2018-12-05T15:10:07.665Z,4.50
2018-12-05T15:12:44.047Z,4.50
2018-12-05T15:15:18.656Z,4.50
2018-12-05T15:17:53.376Z,4.50
2018-12-05T15:20:28.442Z,4.60
2018-12-05T15:23:02.767Z,4.60
2018-12-05T15:25:42.391Z,4.60
2018-12-05T15:28:17.426Z,4.60
2018-12-05T15:30:52.362Z,4.60
2018-12-05T15:33:28.499Z,4.60
2018-12-05T15:36:03.492Z,4.60
2018-12-05T15:38:37.838Z,4.60
2018-12-05T15:41:12.194Z,4.60
2018-12-05T15:43:46.527Z,4.60
2018-12-05T15:46:20.827Z,4.60
2018-12-05T15:48:57.095Z,4.70
2018-12-05T15:51:31.481Z,4.70
2018-12-05T15:54:05.870Z,4.70
2018-12-05T15:56:40.155Z,4.70
2018-12-05T15:59:14.545Z,4.70
2018-12-05T16:01:49.443Z,4.70
2018-12-05T16:04:25.361Z,4.70
2018-12-05T16:07:03.844Z,4.80
2018-12-05T16:09:38.443Z,4.80
2018-12-05T16:12:12.959Z,4.70
2018-12-05T16:14:48.326Z,4.70
2018-12-05T16:17:22.732Z,4.70
2018-12-05T16:19:59.351Z,4.70
2018-12-05T16:22:35.124Z,4.60
2018-12-05T16:25:09.439Z,4.70
2018-12-05T16:27:45.021Z,4.70
2018-12-05T16:30:20.141Z,4.60
2018-12-05T16:32:56.247Z,4.60
2018-12-05T16:35:33.971Z,4.60
2018-12-05T16:38:09.001Z,4.70
2018-12-05T16:40:47.048Z,4.70
2018-12-05T16:43:22.312Z,4.60
2018-12-05T16:45:57.397Z,4.60
2018-12-05T16:48:32.702Z,4.70
2018-12-05T16:51:07.508Z,4.70
2018-12-05T16:53:41.999Z,4.70
2018-12-05T16:56:20.827Z,4.60
2018-12-05T16:59:04.209Z,4.70
2018-12-05T17:01:44.188Z,4.80
2018-12-05T17:04:19.444Z,4.80
2018-12-05T17:06:56.058Z,4.80
2018-12-05T17:09:32.687Z,4.80
2018-12-05T17:12:14.875Z,4.80
2018-12-05T17:14:50.260Z,4.80
2018-12-05T17:17:26.132Z,4.80
2018-12-05T17:20:02.562Z,4.90
2018-12-05T17:22:38.455Z,4.90
2018-12-05T17:25:14.211Z,4.90
2018-12-05T17:27:49.524Z,4.90
2018-12-05T17:30:28.402Z,5.00
2018-12-05T17:33:04.167Z,5.00
2018-12-05T17:35:39.765Z,5.00
2018-12-05T17:38:14.526Z,5.10
2018-12-05T17:40:49.015Z,5.10
2018-12-05T17:43:24.553Z,5.20
2018-12-05T17:45:58.851Z,5.20
2018-12-05T17:48:34.518Z,5.20
2018-12-05T17:51:14.263Z,5.30
2018-12-05T17:53:49.728Z,5.30
2018-12-05T17:56:25.235Z,5.30
2018-12-05T17:58:59.803Z,5.30
2018-12-05T18:01:36.194Z,5.30
2018-12-05T18:04:11.067Z,5.40
2018-12-05T18:06:46.939Z,5.40
2018-12-05T18:09:22.288Z,5.40
2018-12-05T18:11:56.484Z,5.40
2018-12-05T18:14:34.531Z,5.40
2018-12-05T18:17:08.742Z,5.40
2018-12-05T18:19:43.554Z,5.40
2018-12-05T18:22:17.839Z,5.40
2018-12-05T18:24:53.407Z,5.40
2018-12-05T18:27:29.566Z,5.40
2018-12-05T18:30:08.542Z,5.40
2018-12-05T18:32:46.092Z,5.40
2018-12-05T18:35:20.506Z,5.40
2018-12-05T18:37:55.868Z,5.40
2018-12-05T18:40:31.160Z,5.40
2018-12-05T18:43:07.150Z,5.40
2018-12-05T18:45:46.316Z,5.40
2018-12-05T18:48:21.722Z,5.40
2018-12-05T18:50:57.088Z,5.40
2018-12-05T18:53:33.727Z,5.50
2018-12-05T18:56:10.766Z,5.40
2018-12-05T18:58:44.929Z,5.50
2018-12-05T19:01:20.339Z,5.50
2018-12-05T19:03:59.803Z,5.50
2018-12-05T19:06:35.144Z,5.50
2018-12-05T19:09:10.497Z,5.60
2018-12-05T19:11:44.934Z,5.50
2018-12-05T19:14:56.702Z,5.60
2018-12-05T19:17:32.063Z,5.50
2018-12-05T19:20:08.659Z,5.60
2018-12-05T19:22:46.823Z,5.60
2018-12-05T19:25:24.068Z,5.60
2018-12-05T19:28:00.771Z,5.60
2018-12-05T19:30:36.763Z,5.60
2018-12-05T19:33:11.299Z,5.60
2018-12-05T19:35:46.128Z,5.60
2018-12-05T19:38:21.201Z,5.60
2018-12-05T19:40:56.468Z,5.60
2018-12-05T19:43:33.034Z,5.60
2018-12-05T19:46:08.081Z,5.60
2018-12-05T19:48:43.514Z,5.60
2018-12-05T19:51:19.937Z,5.60
2018-12-05T19:53:54.649Z,5.60
2018-12-05T19:56:29.255Z,5.60
2018-12-05T19:59:05.198Z,5.60
2018-12-05T20:01:40.543Z,5.60
2018-12-05T20:04:16.647Z,5.60
2018-12-05T20:06:51.313Z,5.60
2018-12-05T20:09:25.743Z,5.70
2018-12-05T20:12:02.251Z,5.70
2018-12-05T20:14:37.768Z,5.70
2018-12-05T20:17:12.551Z,5.70
2018-12-05T20:19:47.643Z,5.70
2018-12-05T20:22:25.077Z,5.70
2018-12-05T20:25:08.280Z,5.70
2018-12-05T20:27:42.642Z,5.70
2018-12-05T20:30:19.122Z,5.60
2018-12-05T20:32:55.100Z,5.50
2018-12-05T20:35:29.763Z,5.50
2018-12-05T20:38:05.301Z,5.50
2018-12-05T20:40:39.769Z,5.50
2018-12-05T20:43:15.119Z,5.40
2018-12-05T20:45:51.701Z,5.30
2018-12-05T20:48:25.991Z,5.30
2018-12-05T20:51:01.938Z,5.20
2018-12-05T20:53:36.601Z,5.30
2018-12-05T20:56:11.470Z,5.20
2018-12-05T20:58:47.952Z,5.20
2018-12-05T21:01:23.021Z,5.20
2018-12-05T21:03:59.192Z,5.20
2018-12-05T21:06:35.475Z,5.20
2018-12-05T21:09:11.216Z,5.30
2018-12-05T21:11:46.031Z,5.30
2018-12-05T21:14:22.890Z,5.20
2018-12-05T21:16:59.963Z,5.20
2018-12-05T21:19:42.620Z,5.20
2018-12-05T21:22:20.638Z,5.20
2018-12-05T21:24:56.851Z,5.20
2018-12-05T21:27:34.544Z,5.20
2018-12-05T21:30:12.152Z,5.30
2018-12-05T21:32:47.591Z,5.30
2018-12-05T21:35:24.724Z,5.30
2018-12-05T21:38:09.374Z,5.30
2018-12-05T21:40:45.960Z,5.30
2018-12-05T21:43:20.320Z,5.30
2018-12-05T21:45:54.733Z,5.30
2018-12-05T21:48:31.777Z,5.30
2018-12-05T21:51:06.130Z,5.30
2018-12-05T21:53:47.900Z,5.30
2018-12-05T21:56:28.922Z,5.20
2018-12-05T21:59:04.096Z,5.20
2018-12-05T22:01:38.432Z,5.10
2018-12-05T22:04:16.904Z,5.20
2018-12-05T22:06:59.085Z,5.10
2018-12-05T22:09:36.585Z,5.10
2018-12-05T22:12:12.228Z,5.10
2018-12-05T22:14:49.432Z,5.10
2018-12-05T22:17:31.505Z,5.10
2018-12-05T22:20:11.779Z,5.20
2018-12-05T22:22:48.547Z,5.20
2018-12-05T22:28:10.903Z,5.20
2018-12-05T22:30:47.455Z,5.20
2018-12-05T22:33:23.839Z,5.20
2018-12-05T22:36:08.008Z,5.20
2018-12-05T22:38:45.053Z,5.10
2018-12-05T22:41:22.902Z,5.10
2018-12-05T22:43:58.337Z,5.10
2018-12-05T22:46:33.785Z,5.10
2018-12-05T22:51:57.880Z,5.00
2018-12-05T22:54:34.637Z,5.00
2018-12-05T22:57:17.472Z,5.00
2018-12-05T22:59:57.840Z,5.00
2018-12-05T23:02:37.603Z,5.00
2018-12-05T23:05:16.923Z,5.00
2018-12-05T23:07:53.059Z,5.00
2018-12-05T23:10:30.528Z,5.00
2018-12-05T23:13:04.787Z,4.90
2018-12-05T23:15:39.903Z,4.90
2018-12-05T23:18:16.241Z,4.90
